Time;durP1;ratioP1;P1;durP2;ratioP2;P2;SDS_P1;SDS_P2;PMS_P1;PMS_P2;Temp;Humidity;BMP_temperature;BMP_pressure;BME280_temperature;BME280_humidity;BME280_pressure;Samples;Min_cycle;Max_cycle;Signal;HPM_P1;HPM_P2
2024/04/11 00:01:01;;;;;;;2.40;0.60;;;;;;;7.60;97.31;102567.16;5462342;26;20462;-66
2024/04/11 00:03:27;;;;;;;2.00;0.50;;;;;;;7.48;95.59;102572.53;5454877;26;20925;-67
2024/04/11 00:05:56;;;;;;;2.10;0.70;;;;;;;7.53;96.79;102574.53;5454803;26;20954;-66
2024/04/11 00:08:21;;;;;;;2.70;0.70;;;;;;;7.44;95.15;102574.06;5454825;26;20449;-66
2024/04/11 00:10:50;;;;;;;2.27;0.60;;;;;;;7.38;95.28;102568.75;5472571;26;20512;-66
2024/04/11 00:13:17;;;;;;;2.30;0.50;;;;;;;7.36;95.96;102571.69;5491175;26;20243;-67
2024/04/11 00:15:46;;;;;;;2.27;0.60;;;;;;;7.25;96.33;102572.44;5491235;26;20936;-67
2024/04/11 00:18:14;;;;;;;2.00;0.40;;;;;;;7.30;96.04;102576.13;5491110;26;20504;-67
2024/04/11 00:20:43;;;;;;;2.30;0.67;;;;;;;7.27;95.32;102573.88;5487123;26;20464;-67
2024/04/11 00:23:09;;;;;;;2.00;0.37;;;;;;;7.28;95.31;102570.13;5491055;26;20467;-67
2024/04/11 00:25:37;;;;;;;2.07;0.50;;;;;;;7.28;95.79;102574.69;5491028;26;20448;-67
2024/04/11 00:28:03;;;;;;;2.63;0.60;;;;;;;7.26;97.88;102569.53;5490964;26;20215;-67
2024/04/11 00:30:32;;;;;;;2.17;0.57;;;;;;;7.30;98.55;102570.75;5491002;26;20464;-67
2024/04/11 00:32:59;;;;;;;2.60;0.70;;;;;;;7.35;98.63;102575.44;5480600;26;20990;-67
2024/04/11 00:35:30;;;;;;;2.00;0.53;;;;;;;7.31;97.98;102569.69;5454518;26;21023;-67
2024/04/11 00:37:56;;;;;;;2.30;0.50;;;;;;;7.37;97.99;102577.88;5454647;26;20506;-67
2024/04/11 00:40:24;;;;;;;1.90;0.30;;;;;;;7.33;97.49;102582.91;5454477;26;20458;-67
2024/04/11 00:42:50;;;;;;;3.53;0.50;;;;;;;7.42;97.24;102569.94;5456354;26;20256;-66
2024/04/11 00:45:18;;;;;;;1.90;0.30;;;;;;;7.40;97.37;102566.66;5454321;26;20556;-66
2024/04/11 00:47:44;;;;;;;1.93;0.40;;;;;;;7.36;97.84;102577.06;5454351;26;20270;-66
2024/04/11 00:50:12;;;;;;;2.73;1.00;;;;;;;7.34;97.68;102566.50;5454226;26;20466;-66
2024/04/11 00:52:43;;;;;;;2.17;0.67;;;;;;;7.30;97.78;102576.13;5454210;26;20478;-66
2024/04/11 00:55:14;;;;;;;2.23;0.50;;;;;;;7.25;98.14;102572.44;5486295;26;20595;-66
2024/04/11 00:57:40;;;;;;;1.90;0.40;;;;;;;7.29;98.40;102571.75;5490691;26;20581;-66
2024/04/11 01:00:11;;;;;;;2.33;0.50;;;;;;;7.29;97.96;102560.97;5490572;26;20456;-66
2024/04/11 01:02:37;;;;;;;2.20;0.90;;;;;;;7.26;98.03;102569.53;5490452;26;20468;-66
2024/04/11 01:05:06;;;;;;;2.00;0.53;;;;;;;7.28;97.49;102569.31;5487442;26;20481;-66
2024/04/11 01:07:32;;;;;;;2.30;0.57;;;;;;;7.27;97.85;102563.09;5465896;26;20510;-66
2024/04/11 01:10:07;;;;;;;2.57;0.83;;;;;;;7.19;96.84;102571.50;5454010;26;20442;-65
2024/04/11 01:12:34;;;;;;;1.97;0.50;;;;;;;7.00;95.46;102565.34;5452792;26;20525;-65
2024/04/11 01:15:02;;;;;;;2.20;0.60;;;;;;;6.96;95.45;102571.41;5453978;26;20874;-65
2024/04/11 01:17:28;;;;;;;2.27;0.67;;;;;;;6.98;94.38;102569.31;5469124;26;20464;-65
2024/04/11 01:19:56;;;;;;;1.90;0.40;;;;;;;6.86;94.85;102571.94;5490252;26;20548;-65
2024/04/11 01:22:22;;;;;;;2.20;0.63;;;;;;;6.76;94.46;102574.34;5487528;26;20583;-65
2024/04/11 01:24:53;;;;;;;1.90;0.37;;;;;;;6.71;94.37;102569.66;5490075;26;20452;-65
2024/04/11 01:27:20;;;;;;;2.17;0.57;;;;;;;6.71;93.81;102569.66;5486166;26;20621;-65
2024/04/11 01:29:51;;;;;;;1.90;0.40;;;;;;;6.64;94.07;102566.22;5453675;26;20458;-66
2024/04/11 01:32:17;;;;;;;1.90;0.30;;;;;;;6.57;94.91;102568.16;5453631;26;20984;-66
2024/04/11 01:34:46;;;;;;;1.93;0.40;;;;;;;6.64;96.46;102558.16;5453589;26;20817;-67
2024/04/11 01:37:11;;;;;;;3.03;0.70;;;;;;;6.63;96.73;102551.09;5453604;26;20584;-65
2024/04/11 01:39:40;;;;;;;1.90;0.37;;;;;;;6.60;97.76;102556.97;5465031;26;20452;-65
2024/04/11 01:42:08;;;;;;;1.97;0.40;;;;;;;6.62;98.70;102560.22;5489881;26;20296;-65
2024/04/11 01:44:37;;;;;;;1.90;0.40;;;;;;;6.69;97.76;102560.97;5489759;26;20515;-65
2024/04/11 01:47:02;;;;;;;2.03;0.50;;;;;;;6.74;97.99;102557.59;5489677;26;20460;-65
2024/04/11 01:49:32;;;;;;;2.00;0.50;;;;;;;6.64;98.89;102566.22;5486868;26;20578;-65
2024/04/11 01:51:57;;;;;;;2.00;0.53;;;;;;;6.62;99.15;102571.00;5456504;26;20350;-66
2024/04/11 01:54:26;;;;;;;1.90;0.37;;;;;;;6.65;99.34;102572.44;5453275;26;20466;-66
2024/04/11 01:56:51;;;;;;;2.20;0.60;;;;;;;6.65;98.93;102573.25;5453178;26;20708;-66
2024/04/11 01:59:23;;;;;;;1.90;0.30;;;;;;;6.65;98.77;102565.19;5454413;26;20517;-66
2024/04/11 02:01:49;;;;;;;1.90;0.40;;;;;;;6.54;99.29;102569.41;5475119;21;20267;-68
2024/04/11 02:04:17;;;;;;;1.90;0.40;;;;;;;6.66;98.64;102566.81;5486527;26;20535;-68
2024/04/11 02:06:43;;;;;;;1.90;0.40;;;;;;;6.68;98.05;102570.09;5489459;26;20253;-68
2024/04/11 02:09:15;;;;;;;1.90;0.40;;;;;;;6.65;98.82;102575.94;5489436;26;20468;-68
2024/04/11 02:11:46;;;;;;;2.00;0.40;;;;;;;6.58;98.54;102577.88;5489348;26;20235;-68
2024/04/11 02:14:14;;;;;;;2.20;0.47;;;;;;;6.64;98.04;102577.00;5489117;26;20587;-68
2024/04/11 02:16:44;;;;;;;2.50;0.60;;;;;;;6.56;98.66;102577.28;5489259;26;20464;-68
2024/04/11 02:19:12;;;;;;;2.00;0.50;;;;;;;6.54;96.69;102569.41;5489169;26;20453;-68
2024/04/11 02:21:40;;;;;;;1.90;0.40;;;;;;;6.41;96.66;102566.88;5489097;26;20577;-68
2024/04/11 02:24:11;;;;;;;1.83;0.30;;;;;;;6.24;95.14;102569.38;5491280;26;21023;-68
2024/04/11 02:26:37;;;;;;;1.90;0.40;;;;;;;6.18;95.40;102566.72;5492859;26;20475;-67
2024/04/11 02:29:07;;;;;;;2.10;0.50;;;;;;;6.12;95.50;102578.38;5492715;26;20577;-67
2024/04/11 02:31:36;;;;;;;1.90;0.30;;;;;;;6.10;96.05;102578.59;5492436;26;20512;-67
2024/04/11 02:34:04;;;;;;;3.30;0.63;;;;;;;6.20;95.78;102568.16;5475547;26;20528;-67
2024/04/11 02:36:34;;;;;;;1.90;0.50;;;;;;;6.16;94.85;102566.13;5492673;26;20455;-67
2024/04/11 02:39:02;;;;;;;1.97;0.47;;;;;;;6.08;94.79;102572.63;5492576;26;20449;-67
2024/04/11 02:41:31;;;;;;;2.10;0.63;;;;;;;6.10;95.18;102567.81;5492588;26;21034;-67
2024/04/11 02:43:57;;;;;;;2.00;0.50;;;;;;;6.06;95.60;102559.41;5491673;26;21004;-67
2024/04/11 02:46:26;;;;;;;5.20;0.97;;;;;;;6.11;97.27;102569.50;5492541;26;20456;-67
2024/04/11 02:48:53;;;;;;;1.80;0.30;;;;;;;6.14;98.52;102566.34;5492515;26;20452;-67
2024/04/11 02:51:24;;;;;;;1.80;0.30;;;;;;;6.20;98.26;102561.97;5492548;26;20553;-67
2024/04/11 02:53:50;;;;;;;1.90;0.40;;;;;;;6.26;98.13;102569.13;5492389;26;20468;-68
2024/04/11 02:56:18;;;;;;;2.20;0.70;;;;;;;6.24;98.80;102558.59;5492752;26;20562;-68
2024/04/11 02:58:44;;;;;;;1.80;0.30;;;;;;;6.30;98.88;102562.25;5492442;26;20222;-68
2024/04/11 03:01:14;;;;;;;4.63;0.90;;;;;;;6.31;98.94;102566.59;5492494;26;20574;-67
2024/04/11 03:03:39;;;;;;;2.70;0.60;;;;;;;6.38;98.60;102574.59;5492115;26;20243;-67
2024/04/11 03:06:10;;;;;;;3.00;1.00;;;;;;;6.39;99.23;102565.47;5491485;26;20460;-67
2024/04/11 03:08:40;;;;;;;1.87;0.33;;;;;;;6.34;100.00;102570.72;5492424;26;20231;-68
2024/04/11 03:11:09;;;;;;;2.00;0.47;;;;;;;6.36;100.00;102564.03;5492408;26;20526;-67
2024/04/11 03:13:35;;;;;;;2.07;0.47;;;;;;;6.39;100.00;102566.28;5492077;26;20527;-67
2024/04/11 03:16:04;;;;;;;2.10;0.40;;;;;;;6.47;100.00;102565.19;5491572;26;20577;-67
2024/04/11 03:18:31;;;;;;;2.30;1.00;;;;;;;6.55;100.00;102576.47;5492215;26;20843;-67
2024/04/11 03:21:00;;;;;;;2.70;0.80;;;;;;;6.57;100.00;102571.69;5492098;26;20441;-68
2024/04/11 03:23:27;;;;;;;1.90;0.50;;;;;;;6.55;100.00;102570.25;5492063;26;20524;-68
2024/04/11 03:25:58;;;;;;;2.07;0.80;;;;;;;6.55;100.00;102563.00;5491634;26;20518;-68
2024/04/11 03:28:24;;;;;;;2.00;0.57;;;;;;;6.54;100.00;102552.44;5492428;26;20470;-68
2024/04/11 03:30:56;;;;;;;1.80;0.40;;;;;;;6.53;100.00;102558.91;5491955;26;20448;-68
2024/04/11 03:33:21;;;;;;;1.90;0.37;;;;;;;6.47;99.96;102559.81;5491818;26;20231;-68
2024/04/11 03:35:58;;;;;;;1.90;0.43;;;;;;;6.41;99.39;102555.28;5491069;26;20448;-68
2024/04/11 03:38:24;;;;;;;1.80;0.30;;;;;;;6.42;97.95;102554.25;5490736;26;20231;-68
2024/04/11 03:41:02;;;;;;;1.90;0.40;;;;;;;6.40;98.21;102553.66;5491728;26;20468;-68
2024/04/11 03:43:31;;;;;;;1.90;0.50;;;;;;;6.43;97.66;102555.91;5491769;26;20581;-68
2024/04/11 03:46:06;;;;;;;2.00;0.50;;;;;;;6.45;99.34;102559.19;5491619;26;20865;-68
2024/04/11 03:48:32;;;;;;;2.00;0.50;;;;;;;6.46;98.14;102558.97;5491641;26;20535;-68
2024/04/11 03:51:00;;;;;;;2.60;1.20;;;;;;;6.50;98.18;102565.53;5491506;26;20975;-68
2024/04/11 03:53:26;;;;;;;1.80;0.40;;;;;;;6.52;99.16;102559.94;5491523;26;20227;-68
2024/04/11 03:55:54;;;;;;;1.90;0.40;;;;;;;6.57;99.63;102554.69;5491585;26;20448;-68
2024/04/11 03:58:25;;;;;;;1.90;0.43;;;;;;;6.45;100.00;102556.50;5491291;26;20569;-68
2024/04/11 04:00:53;;;;;;;2.50;0.93;;;;;;;6.49;100.00;102565.78;5491291;26;20468;-68
2024/04/11 04:03:19;;;;;;;2.67;0.80;;;;;;;6.51;100.00;102566.38;5491442;26;20525;-68
2024/04/11 04:05:47;;;;;;;2.00;0.63;;;;;;;6.51;100.00;102571.78;5491257;26;20812;-68
2024/04/11 04:08:13;;;;;;;2.00;0.40;;;;;;;6.54;100.00;102568.59;5491062;26;20258;-68
2024/04/11 04:10:41;;;;;;;1.80;0.30;;;;;;;6.53;100.00;102572.34;5491371;26;20464;-68
2024/04/11 04:13:09;;;;;;;1.80;0.50;;;;;;;6.52;100.00;102571.53;5491239;26;20522;-68
2024/04/11 04:15:40;;;;;;;2.17;0.70;;;;;;;6.54;100.00;102571.28;5491254;26;20972;-68
2024/04/11 04:18:07;;;;;;;2.37;0.97;;;;;;;6.60;100.00;102575.81;5491235;26;20448;-68
2024/04/11 04:20:36;;;;;;;2.10;0.60;;;;;;;6.64;100.00;102568.91;5488848;26;20460;-68
2024/04/11 04:23:10;;;;;;;1.80;0.30;;;;;;;6.61;100.00;102574.75;5491044;26;20797;-68
2024/04/11 04:25:39;;;;;;;3.63;1.30;;;;;;;6.63;100.00;102577.19;5491216;26;20451;-68
2024/04/11 04:28:05;;;;;;;2.30;0.80;;;;;;;6.63;100.00;102582.59;5490992;26;20987;-68
2024/04/11 04:30:34;;;;;;;2.10;0.60;;;;;;;6.61;100.00;102582.81;5490931;26;20562;-68
2024/04/11 04:33:04;;;;;;;2.50;0.47;;;;;;;6.71;100.00;102584.97;5490903;26;20487;-69
2024/04/11 04:35:33;;;;;;;2.63;0.70;;;;;;;6.77;100.00;102584.06;5491054;26;20793;-69
2024/04/11 04:37:59;;;;;;;2.00;0.53;;;;;;;6.82;100.00;102593.13;5490528;26;20508;-69
2024/04/11 04:40:28;;;;;;;2.07;0.70;;;;;;;6.78;100.00;102578.47;5489318;26;20460;-69
2024/04/11 04:42:55;;;;;;;2.20;0.50;;;;;;;6.79;100.00;102582.00;5490661;26;20231;-69
2024/04/11 04:45:24;;;;;;;2.03;0.60;;;;;;;6.79;100.00;102572.03;5490796;26;21002;-68
2024/04/11 04:47:50;;;;;;;4.47;0.93;;;;;;;6.80;100.00;102570.97;5489196;26;20460;-68
2024/04/11 04:50:21;;;;;;;2.50;0.57;;;;;;;6.79;100.00;102573.91;5490677;26;20506;-68
2024/04/11 04:52:47;;;;;;;3.07;1.33;;;;;;;6.80;100.00;102570.97;5490660;26;20231;-68
2024/04/11 04:55:17;;;;;;;2.50;0.83;;;;;;;6.79;100.00;102569.34;5490751;26;20448;-68
2024/04/11 04:57:43;;;;;;;1.80;0.40;;;;;;;6.83;100.00;102567.84;5490629;26;20557;-68
2024/04/11 05:00:13;;;;;;;1.90;0.53;;;;;;;6.97;100.00;102573.06;5490284;26;20448;-68
2024/04/11 05:02:39;;;;;;;2.07;0.60;;;;;;;7.10;100.00;102575.56;5473702;26;20286;-68
2024/04/11 05:05:10;;;;;;;2.00;0.60;;;;;;;7.21;100.00;102573.97;5490502;26;21085;-68
2024/04/11 05:07:40;;;;;;;2.37;0.70;;;;;;;7.33;100.00;102575.66;5490542;26;20504;-68
2024/04/11 05:10:09;;;;;;;2.40;0.70;;;;;;;7.45;100.00;102574.88;5490021;26;20464;-68
2024/04/11 05:12:43;;;;;;;5.63;2.73;;;;;;;7.57;100.00;102578.41;5490333;26;21003;-68
2024/04/11 05:15:12;;;;;;;5.07;2.50;;;;;;;7.71;100.00;102573.63;5490468;26;20459;-68
2024/04/11 05:17:40;;;;;;;6.60;2.53;;;;;;;7.81;100.00;102574.69;5490338;26;20516;-68
2024/04/11 05:20:17;;;;;;;7.43;2.80;;;;;;;7.96;100.00;102566.13;5483298;26;20461;-68
2024/04/11 05:22:46;;;;;;;9.07;4.00;;;;;;;8.07;100.00;102561.81;5488672;26;20588;-68
2024/04/11 05:25:15;;;;;;;6.67;3.03;;;;;;;8.17;100.00;102563.91;5488690;26;20564;-68
2024/04/11 05:27:43;;;;;;;8.23;2.40;;;;;;;8.28;100.00;102566.59;5485960;26;20614;-68
2024/04/11 05:30:12;;;;;;;3.53;1.50;;;;;;;8.40;100.00;102568.47;5489623;26;20984;-67
2024/04/11 05:32:39;;;;;;;7.90;2.50;;;;;;;8.50;100.00;102564.13;5483846;26;20242;-68
2024/04/11 05:35:09;;;;;;;3.30;1.50;;;;;;;8.62;100.00;102563.28;5489126;26;20527;-67
2024/04/11 05:37:36;;;;;;;4.00;1.97;;;;;;;8.72;100.00;102566.16;5490153;26;20508;-68
2024/04/11 05:40:08;;;;;;;5.40;2.40;;;;;;;8.83;99.51;102558.03;5489964;26;20501;-67
2024/04/11 05:42:35;;;;;;;3.70;1.83;;;;;;;8.95;99.33;102562.59;5487616;26;20464;-67
2024/04/11 05:45:03;;;;;;;6.10;2.40;;;;;;;9.06;97.69;102572.53;5489815;26;20457;-68
2024/04/11 05:47:30;;;;;;;4.57;1.50;;;;;;;9.12;96.83;102563.47;5489794;26;20472;-67
2024/04/11 05:49:58;;;;;;;7.10;1.93;;;;;;;9.27;94.68;102566.44;5489804;26;20452;-68
2024/04/11 05:52:24;;;;;;;6.40;3.10;;;;;;;9.33;94.21;102575.44;5489720;26;21011;-67
2024/04/11 05:54:52;;;;;;;6.73;2.47;;;;;;;9.40;93.08;102568.00;5489664;26;20452;-67
2024/04/11 05:57:21;;;;;;;5.13;2.30;;;;;;;9.52;92.43;102573.38;5489168;26;20231;-67
2024/04/11 05:59:49;;;;;;;12.73;2.23;;;;;;;9.63;91.40;102574.34;5491928;26;20581;-67
2024/04/11 06:02:16;;;;;;;2.93;1.10;;;;;;;9.69;90.87;102579.56;5492797;26;21125;-67
2024/04/11 06:04:45;;;;;;;4.20;1.50;;;;;;;9.80;90.07;102575.16;5492965;26;20460;-67
2024/04/11 06:07:11;;;;;;;3.23;1.50;;;;;;;9.97;89.39;102580.56;5492762;26;20552;-67
2024/04/11 06:09:39;;;;;;;2.93;1.17;;;;;;;10.09;87.71;102579.41;5492648;26;21011;-67
2024/04/11 06:12:05;;;;;;;7.00;2.33;;;;;;;10.20;88.25;102574.94;5492921;26;20406;-67
2024/04/11 06:14:37;;;;;;;3.70;1.17;;;;;;;10.32;87.58;102580.31;5492928;26;20492;-67
2024/04/11 06:17:03;;;;;;;4.93;2.50;;;;;;;10.42;85.66;102577.72;5492992;26;20787;-67
2024/04/11 06:19:32;;;;;;;3.70;1.80;;;;;;;10.50;85.84;102573.78;5492661;26;20516;-67
2024/04/11 06:22:06;;;;;;;2.83;1.07;;;;;;;10.60;86.04;102574.72;5493093;26;20520;-67
2024/04/11 06:24:35;;;;;;;3.27;1.20;;;;;;;10.67;86.05;102574.53;5492888;26;20595;-67
2024/04/11 06:27:05;;;;;;;4.10;2.23;;;;;;;10.78;85.23;102570.84;5492538;26;20464;-67
2024/04/11 06:29:37;;;;;;;5.60;2.33;;;;;;;10.90;84.57;102578.06;5492843;26;20448;-67
2024/04/11 06:32:06;;;;;;;2.63;0.80;;;;;;;11.02;83.36;102573.28;5492455;26;21051;-67
2024/04/11 06:34:32;;;;;;;4.00;1.10;;;;;;;11.14;81.47;102576.66;5492895;26;20456;-67
2024/04/11 06:37:00;;;;;;;3.33;1.30;;;;;;;11.31;80.04;102571.97;5492458;26;20589;-67
2024/04/11 06:39:26;;;;;;;3.53;1.00;;;;;;;11.43;78.53;102571.00;5492555;26;20265;-67
2024/04/11 06:41:55;;;;;;;3.90;1.23;;;;;;;11.51;76.97;102578.63;5493085;26;20448;-67
2024/04/11 06:44:21;;;;;;;3.80;1.23;;;;;;;11.58;77.73;102574.66;5492557;26;20274;-67
2024/04/11 06:46:52;;;;;;;3.57;1.20;;;;;;;11.69;77.08;102570.13;5492506;26;20448;-67
2024/04/11 06:49:17;;;;;;;3.53;1.33;;;;;;;11.79;76.75;102570.22;5491960;26;20512;-67
2024/04/11 06:51:47;;;;;;;3.83;1.20;;;;;;;11.91;76.47;102580.94;5492520;26;20440;-67
2024/04/11 06:54:14;;;;;;;2.73;0.83;;;;;;;11.98;76.05;102581.50;5492395;26;20231;-68
2024/04/11 06:56:45;;;;;;;4.30;1.20;;;;;;;12.11;74.38;102578.31;5492441;26;20567;-69
2024/04/11 06:59:12;;;;;;;3.87;1.50;;;;;;;12.23;73.95;102589.00;5492050;26;20908;-70
2024/04/11 07:01:40;;;;;;;3.13;0.90;;;;;;;12.39;73.84;102581.75;5492191;26;20460;-67
2024/04/11 07:04:09;;;;;;;3.33;1.13;;;;;;;12.52;71.71;102577.72;5492386;26;20468;-68
2024/04/11 07:06:38;;;;;;;3.90;1.20;;;;;;;12.65;71.28;102582.69;5492035;26;20512;-68
2024/04/11 07:09:04;;;;;;;3.77;1.10;;;;;;;12.81;70.60;102576.22;5491562;26;20456;-67
2024/04/11 07:11:40;;;;;;;2.40;0.73;;;;;;;12.93;70.35;102577.91;5474489;26;21081;-69
2024/04/11 07:14:11;;;;;;;2.50;0.63;;;;;;;13.09;68.28;102574.13;5491985;26;20273;-69
2024/04/11 07:16:44;;;;;;;2.73;1.00;;;;;;;13.23;67.91;102569.81;5491988;26;20511;-69
2024/04/11 07:19:12;;;;;;;3.53;0.90;;;;;;;13.35;66.40;102575.81;5492395;26;20516;-67
2024/04/11 07:21:43;;;;;;;3.43;1.10;;;;;;;13.46;64.15;102573.09;5491236;26;20660;-69
2024/04/11 07:24:09;;;;;;;4.20;1.57;;;;;;;13.50;64.30;102582.38;5479857;26;20469;-69
2024/04/11 07:26:38;;;;;;;3.30;1.13;;;;;;;13.58;64.57;102576.38;5472531;26;20460;-69
2024/04/11 07:29:05;;;;;;;3.10;0.93;;;;;;;13.63;62.72;102563.59;5491952;26;20559;-69
2024/04/11 07:31:36;;;;;;;2.57;0.80;;;;;;;13.68;62.56;102567.38;5491619;26;20532;-69
2024/04/11 07:34:02;;;;;;;4.47;0.97;;;;;;;13.73;63.23;102564.69;5491585;26;20532;-69
2024/04/11 07:36:34;;;;;;;2.80;1.00;;;;;;;13.80;60.98;102563.31;5491525;26;20493;-69
2024/04/11 07:39:01;;;;;;;2.60;0.83;;;;;;;13.81;61.46;102561.38;5491909;26;20448;-68
2024/04/11 07:41:44;;;;;;;2.60;0.80;;;;;;;13.83;62.33;102564.66;5491584;26;20558;-69
2024/04/11 07:44:11;;;;;;;3.33;0.80;;;;;;;13.91;60.81;102566.84;5487560;26;20520;-69
2024/04/11 07:46:40;;;;;;;3.53;1.07;;;;;;;13.98;59.08;102570.09;5490971;26;20516;-69
2024/04/11 07:49:07;;;;;;;3.43;1.20;;;;;;;14.06;58.53;102569.53;5491262;26;20516;-70
2024/04/11 07:51:38;;;;;;;3.77;1.30;;;;;;;14.10;59.55;102561.63;5491720;26;20449;-69
2024/04/11 07:54:04;;;;;;;3.63;1.10;;;;;;;14.24;56.74;102562.69;5491485;26;20674;-70
2024/04/11 07:56:35;;;;;;;2.53;0.67;;;;;;;14.38;55.58;102560.97;5491501;26;20456;-70
2024/04/11 07:59:02;;;;;;;3.10;0.90;;;;;;;14.54;53.85;102569.16;5491106;26;20356;-69
2024/04/11 08:01:34;;;;;;;3.23;0.87;;;;;;;14.65;54.99;102557.09;5491427;26;20567;-69
2024/04/11 08:04:01;;;;;;;2.70;0.87;;;;;;;14.79;54.10;102573.69;5491419;26;21098;-70
2024/04/11 08:06:30;;;;;;;4.17;0.90;;;;;;;14.92;52.74;102577.69;5491268;26;20842;-69
2024/04/11 08:08:59;;;;;;;2.60;0.80;;;;;;;15.04;52.59;102575.44;5490902;26;20464;-69
2024/04/11 08:11:30;;;;;;;2.40;0.67;;;;;;;15.08;52.01;102579.25;5491646;26;20456;-70
2024/04/11 08:13:57;;;;;;;2.40;0.70;;;;;;;15.23;52.09;102578.31;5484427;26;20958;-69
2024/04/11 08:16:26;;;;;;;2.60;0.70;;;;;;;15.38;50.89;102584.50;5491217;26;20460;-70
2024/04/11 08:18:52;;;;;;;3.13;0.97;;;;;;;15.43;49.81;102586.38;5490818;26;20509;-69
2024/04/11 08:21:20;;;;;;;2.73;0.60;;;;;;;15.42;52.49;102578.50;5490575;26;20476;-69
2024/04/11 08:23:46;;;;;;;3.10;0.80;;;;;;;15.48;49.89;102585.53;5491141;26;20811;-70
2024/04/11 08:26:17;;;;;;;2.40;0.73;;;;;;;15.55;50.55;102586.84;5489474;26;20469;-69
2024/04/11 08:28:43;;;;;;;3.13;0.90;;;;;;;15.61;49.89;102587.63;5490770;26;20326;-70
2024/04/11 08:31:12;;;;;;;3.07;0.70;;;;;;;15.73;49.53;102587.28;5490867;26;20520;-70
2024/04/11 08:33:38;;;;;;;2.60;0.60;;;;;;;15.82;49.39;102580.91;5490046;26;20472;-70
2024/04/11 08:36:08;;;;;;;2.30;0.60;;;;;;;15.94;47.51;102574.22;5490974;26;20963;-70
2024/04/11 08:38:34;;;;;;;6.40;0.73;;;;;;;15.99;46.07;102579.66;5491072;26;20219;-69
2024/04/11 08:41:09;;;;;;;2.30;0.60;;;;;;;16.04;45.13;102583.16;5484554;26;20460;-70
2024/04/11 08:43:39;;;;;;;2.97;0.70;;;;;;;16.04;46.03;102591.34;5476214;26;20460;-70
2024/04/11 08:46:10;;;;;;;2.20;0.60;;;;;;;16.00;46.67;102594.97;5490498;26;20471;-69
2024/04/11 08:48:37;;;;;;;4.90;0.80;;;;;;;16.00;47.05;102594.97;5490588;26;20874;-70
2024/04/11 08:51:11;;;;;;;2.73;0.63;;;;;;;15.98;48.07;102592.53;5489509;26;20468;-69
2024/04/11 08:53:39;;;;;;;2.73;0.87;;;;;;;16.00;47.40;102601.22;5490135;26;20471;-70
2024/04/11 08:56:11;;;;;;;2.20;0.50;;;;;;;16.06;46.58;102602.00;5484507;26;20473;-70
2024/04/11 08:58:42;;;;;;;2.40;0.60;;;;;;;16.13;46.65;102610.69;5490529;26;20460;-71
2024/04/11 09:01:14;;;;;;;2.23;0.63;;;;;;;16.18;46.76;102612.56;5490360;26;20516;-68
2024/04/11 09:03:40;;;;;;;2.50;0.60;;;;;;;16.29;46.29;102608.59;5490605;26;20484;-70
2024/04/11 09:06:11;;;;;;;3.17;0.80;;;;;;;16.36;44.64;102620.81;5490035;26;20523;-69
2024/04/11 09:08:37;;;;;;;2.30;0.63;;;;;;;16.38;45.32;102621.38;5490082;26;20578;-69
2024/04/11 09:11:06;;;;;;;3.93;0.67;;;;;;;16.34;45.22;102616.75;5490626;26;20456;-69
2024/04/11 09:13:32;;;;;;;2.40;0.80;;;;;;;16.40;46.11;102621.88;5490444;26;20282;-68
2024/04/11 09:16:05;;;;;;;2.70;0.77;;;;;;;16.62;46.24;102617.81;5490659;26;20460;-70
2024/04/11 09:18:31;;;;;;;4.20;1.03;;;;;;;16.87;44.85;102608.50;5490251;26;20215;-68
2024/04/11 09:21:04;;;;;;;2.77;0.50;;;;;;;17.01;45.01;102614.88;5489648;26;20820;-69
2024/04/11 09:23:34;;;;;;;3.67;0.93;;;;;;;17.03;43.78;102614.56;5490148;26;20235;-69
2024/04/11 09:26:03;;;;;;;3.70;1.20;;;;;;;17.18;43.38;102622.59;5490296;26;20504;-68
2024/04/11 09:28:29;;;;;;;4.90;1.13;;;;;;;17.35;43.47;102622.88;5490305;26;20509;-69
2024/04/11 09:30:58;;;;;;;2.47;0.63;;;;;;;17.46;42.68;102626.28;5490124;26;20444;-69
2024/04/11 09:33:29;;;;;;;2.10;0.40;;;;;;;17.49;41.91;102627.63;5489254;26;20618;-68
2024/04/11 09:35:58;;;;;;;2.30;0.63;;;;;;;17.46;41.64;102626.28;5490156;26;20452;-68
2024/04/11 09:38:29;;;;;;;2.53;0.70;;;;;;;17.50;41.91;102631.97;5489404;26;20550;-69
2024/04/11 09:41:04;;;;;;;2.40;0.63;;;;;;;17.38;40.98;102641.44;5476389;26;20476;-69
2024/04/11 09:43:37;;;;;;;2.20;0.60;;;;;;;17.31;42.88;102634.69;5489917;26;21101;-69
2024/04/11 09:46:07;;;;;;;2.30;0.60;;;;;;;17.28;41.98;102632.59;5489854;26;20567;-69
2024/04/11 09:48:38;;;;;;;2.70;0.70;;;;;;;17.28;41.90;102629.84;5489931;26;20508;-69
2024/04/11 09:51:10;;;;;;;2.97;0.60;;;;;;;17.22;43.41;102633.75;5489819;26;20459;-69
2024/04/11 09:53:36;;;;;;;2.40;0.50;;;;;;;17.25;42.91;102633.97;5489979;26;20523;-68
2024/04/11 09:56:08;;;;;;;4.07;0.90;;;;;;;17.32;43.20;102630.88;5489762;26;20508;-68
2024/04/11 09:58:38;;;;;;;2.53;0.80;;;;;;;17.51;42.47;102633.59;5489873;26;20460;-68
2024/04/11 10:01:29;;;;;;;2.40;0.50;;;;;;;17.69;42.85;102624.53;5489273;26;20464;-69
2024/04/11 10:04:01;;;;;;;2.63;0.60;;;;;;;17.87;42.27;102628.38;5489712;26;20468;-69
2024/04/11 10:06:35;;;;;;;2.47;0.60;;;;;;;17.90;41.63;102628.59;5489526;26;20524;-68
2024/04/11 10:09:11;;;;;;;4.47;1.00;;;;;;;18.03;40.76;102632.50;5489545;26;20459;-69
2024/04/11 10:11:40;;;;;;;2.73;0.73;;;;;;;18.12;41.50;102629.88;5489437;26;20817;-68
2024/04/11 10:14:16;;;;;;;2.73;0.70;;;;;;;18.07;41.65;102625.28;5487832;26;20515;-68
2024/04/11 10:16:48;;;;;;;3.77;0.60;;;;;;;18.13;41.95;102628.75;5489317;26;20452;-68
2024/04/11 10:19:26;;;;;;;3.10;0.50;;;;;;;18.14;41.31;102627.63;5488896;26;20528;-68
2024/04/11 10:21:55;;;;;;;2.27;0.53;;;;;;;17.98;41.46;102634.53;5488432;26;20464;-68
2024/04/11 10:24:27;;;;;;;2.70;0.60;;;;;;;17.88;41.23;102640.97;5489148;26;20464;-69
2024/04/11 10:26:57;;;;;;;4.90;0.70;;;;;;;17.81;41.60;102640.56;5489137;26;20456;-71
2024/04/11 10:29:26;;;;;;;2.50;0.60;;;;;;;17.86;42.19;102633.06;5489109;26;20822;-68
2024/04/11 10:31:56;;;;;;;2.40;0.70;;;;;;;17.94;42.28;102634.31;5452673;26;20453;-68
2024/04/11 10:34:34;;;;;;;2.50;0.77;;;;;;;18.05;40.44;102632.19;5457863;26;20472;-70
2024/04/11 10:37:04;;;;;;;2.33;0.50;;;;;;;18.01;38.44;102642.94;5488987;26;20464;-69
2024/04/11 10:39:35;;;;;;;4.43;0.73;;;;;;;17.95;39.74;102630.44;5488661;26;20467;-66
2024/04/11 10:42:07;;;;;;;6.23;0.77;;;;;;;17.98;39.49;102632.59;5479371;26;20604;-69
2024/04/11 10:44:34;;;;;;;3.03;0.83;;;;;;;17.98;39.51;102637.25;5486327;26;21165;-68
2024/04/11 10:47:07;;;;;;;2.30;0.60;;;;;;;17.81;39.75;102633.16;5487806;26;20517;-68
2024/04/11 10:49:41;;;;;;;2.70;0.67;;;;;;;17.71;39.63;102630.56;5472325;26;20471;-69
2024/04/11 10:52:10;;;;;;;2.10;0.43;;;;;;;17.59;40.63;102641.16;5492528;26;20451;-69
2024/04/11 10:54:36;;;;;;;3.27;0.70;;;;;;;17.54;39.58;102633.81;5492447;26;20525;-69
2024/04/11 10:57:05;;;;;;;2.67;0.70;;;;;;;17.45;40.54;102635.63;5492422;26;20563;-68
2024/04/11 10:59:32;;;;;;;2.47;0.70;;;;;;;17.40;40.81;102631.03;5492452;26;20448;-68
2024/04/11 11:02:07;;;;;;;5.60;0.90;;;;;;;17.38;41.15;102627.75;5492277;26;21105;-69
2024/04/11 11:04:43;;;;;;;4.10;1.20;;;;;;;17.37;40.52;102633.53;5492384;26;20867;-69
2024/04/11 11:07:12;;;;;;;2.23;0.50;;;;;;;17.34;40.57;102626.72;5492066;26;20464;-68
2024/04/11 11:09:42;;;;;;;2.50;0.60;;;;;;;17.41;41.25;102623.63;5492425;26;20448;-68
2024/04/11 11:12:11;;;;;;;2.10;0.43;;;;;;;17.47;40.91;102627.91;5492415;26;20537;-69
2024/04/11 11:14:38;;;;;;;2.20;0.60;;;;;;;17.51;41.17;102623.44;5492163;26;20515;-69
2024/04/11 11:17:07;;;;;;;2.30;0.40;;;;;;;17.64;41.08;102630.09;5491876;26;20528;-68
2024/04/11 11:19:34;;;;;;;3.30;0.87;;;;;;;17.79;41.32;102623.56;5491887;26;20803;-68
2024/04/11 11:22:05;;;;;;;2.97;0.80;;;;;;;17.97;40.80;102624.66;5492135;26;20951;-68
2024/04/11 11:24:34;;;;;;;2.50;0.60;;;;;;;18.01;40.46;102622.94;5492049;26;20520;-69
2024/04/11 11:27:05;;;;;;;2.63;0.70;;;;;;;17.98;40.44;102618.06;5492039;26;20464;-68
2024/04/11 11:29:31;;;;;;;2.60;0.80;;;;;;;17.98;40.62;102626.28;5492199;26;20573;-68
2024/04/11 11:32:04;;;;;;;3.43;1.00;;;;;;;17.97;41.16;102619.16;5492030;26;20441;-69
2024/04/11 11:34:31;;;;;;;3.03;0.50;;;;;;;17.98;41.25;102626.28;5491628;26;20524;-68
2024/04/11 11:37:00;;;;;;;2.87;0.80;;;;;;;17.98;42.49;102618.06;5492421;26;20811;-69